CYZV

Sept-Îles Airport

Sept-Îles, Quebec, Canada
TAF CYZV 221139Z 2212/2312 28020G35KT P6SM SCT040 BKN070 TEMPO 2212/2217 BKN040 FM221700 30020G35KT P6SM SCT040 BECMG 2222/2224 28012G22KT FM230300 27012KT P6SM SKC FM230800 27010KT P6SM BKN040 FM231000 28008KT P6SM -SHRA OVC030 RMK NXT FCST BY 221800Z
Issued Valid From Valid To
Sep-22 @ 11:39 UTC
(3 hours ago)
Sep-22 @ 12:00 UTC
(3 hours ago)
Sep-23 @ 12:00 UTC
(in 21 hours)
to
to
to
to
to
to
to
TAF CYZV 221139Z 2212/2312 28020G35KT P6SM SCT040 BKN070 TEMPO 2212/2217 BKN040 FM221700 30020G35KT P6SM SCT040 BECMG 2222/2224 28012G22KT FM230300 27012KT P6SM SKC FM230800 27010KT P6SM BKN040 FM231000 28008KT P6SM -SHRA OVC030 RMK NXT FCST BY 221800Z
Issued Sep-22 @ 11:39 UTC
(3 hours ago)
Valid From Sep-22 @ 12:00 UTC
(3 hours ago)
Valid To Sep-23 @ 12:00 UTC
(in 21 hours)
-
-
-
-
-
-
-